Time;durP1;ratioP1;P1;durP2;ratioP2;P2;SDS_P1;SDS_P2;PMS_P1;PMS_P2;Temp;Humidity;BMP_temperature;BMP_pressure;BME280_temperature;BME280_humidity;BME280_pressure;Samples;Min_cycle;Max_cycle;Signal;HPM_P1;HPM_P2
2022/04/14 00:02:06;;;;;;;24.15;16.35;;;14.50;77.80;;;;;;5106736;27;20216;-70
2022/04/14 00:04:35;;;;;;;19.80;14.10;;;14.40;77.80;;;;;;5095814;27;20019;-69
2022/04/14 00:07:03;;;;;;;31.63;14.82;;;14.50;77.90;;;;;;5106539;28;20024;-69
2022/04/14 00:09:29;;;;;;;28.23;14.50;;;14.50;77.90;;;;;;5110008;28;20030;-69
2022/04/14 00:11:55;;;;;;;24.63;15.70;;;14.50;78.00;;;;;;5106977;27;20024;-69
2022/04/14 00:14:21;;;;;;;47.65;15.73;;;14.50;78.10;;;;;;5104150;27;20026;-71
2022/04/14 00:16:47;;;;;;;44.63;15.35;;;14.50;78.10;;;;;;5103445;27;20035;-70
2022/04/14 00:19:12;;;;;;;55.38;15.30;;;14.50;78.20;;;;;;5119662;27;21384;-70
2022/04/14 00:21:38;;;;;;;48.03;15.05;;;14.50;78.30;;;;;;5108272;27;20031;-70
2022/04/14 00:24:04;;;;;;;43.80;14.00;;;14.50;78.40;;;;;;5109228;28;20032;-70
2022/04/14 00:26:30;;;;;;;38.45;16.05;;;14.50;78.50;;;;;;5115253;27;20043;-70
2022/04/14 00:28:55;;;;;;;24.33;14.10;;;14.50;78.50;;;;;;5108127;27;21203;-70
2022/04/14 00:31:21;;;;;;;48.85;17.33;;;14.50;78.50;;;;;;5104285;28;21037;-69
2022/04/14 00:33:47;;;;;;;30.90;15.27;;;14.50;78.60;;;;;;5085936;28;20031;-69
2022/04/14 00:36:13;;;;;;;83.95;18.10;;;14.50;78.70;;;;;;5081483;28;20020;-69
2022/04/14 00:38:38;;;;;;;52.47;16.80;;;14.40;78.90;;;;;;5106261;28;20043;-69
2022/04/14 00:41:04;;;;;;;52.05;15.60;;;14.40;79.20;;;;;;5104533;27;20046;-68
2022/04/14 00:43:34;;;;;;;51.70;14.55;;;14.40;79.30;;;;;;5108938;28;20114;-69
2022/04/14 00:46:02;;;;;;;76.50;19.20;;;14.40;79.40;;;;;;5100633;28;20501;-69
2022/04/14 00:48:28;;;;;;;61.50;17.60;;;14.30;79.50;;;;;;5104256;27;20506;-69
2022/04/14 00:50:54;;;;;;;41.65;16.65;;;14.30;79.60;;;;;;5106212;27;20031;-68
2022/04/14 00:53:21;;;;;;;108.47;18.50;;;14.30;79.70;;;;;;5102486;28;20031;-68
2022/04/14 00:55:47;;;;;;;61.33;18.35;;;14.30;79.90;;;;;;5106301;27;20053;-68
2022/04/14 00:58:12;;;;;;;120.80;22.30;;;14.20;80.00;;;;;;5106661;28;20114;-68
2022/04/14 01:00:38;;;;;;;62.03;21.63;;;14.10;80.50;;;;;;5107375;27;20019;-68
2022/04/14 01:03:04;;;;;;;93.60;19.23;;;14.10;81.00;;;;;;5103311;27;20023;-70
2022/04/14 01:05:30;;;;;;;61.65;20.88;;;14.10;81.20;;;;;;5108685;28;20505;-70
2022/04/14 01:07:57;;;;;;;45.95;18.25;;;14.10;81.30;;;;;;5104870;27;20019;-69
2022/04/14 01:10:25;;;;;;;34.47;17.95;;;14.10;81.30;;;;;;5108457;28;20504;-69
2022/04/14 01:12:51;;;;;;;117.78;22.33;;;14.00;81.40;;;;;;5107292;28;20073;-70
2022/04/14 01:15:17;;;;;;;59.50;22.10;;;14.00;81.60;;;;;;5103142;28;20022;-69
2022/04/14 01:17:43;;;;;;;67.68;20.02;;;13.90;81.90;;;;;;5085116;28;20020;-70
2022/04/14 01:20:11;;;;;;;39.25;19.75;;;13.90;82.00;;;;;;5105802;28;20023;-70
2022/04/14 01:23:09;;;;;;;35.35;17.70;;;14.00;82.10;;;;;;5107449;28;20103;-70
2022/04/14 01:25:36;;;;;;;34.15;19.38;;;14.00;82.10;;;;;;5085112;28;20047;-70
2022/04/14 01:28:03;;;;;;;70.50;21.13;;;14.00;82.00;;;;;;5108975;28;20051;-68
2022/04/14 01:30:29;;;;;;;28.92;20.05;;;14.00;82.10;;;;;;5101227;28;20490;-69
2022/04/14 01:32:55;;;;;;;74.72;22.17;;;14.00;82.20;;;;;;5107612;28;20625;-69
2022/04/14 01:35:22;;;;;;;62.15;21.92;;;13.90;82.20;;;;;;5103242;28;20481;-70
2022/04/14 01:37:47;;;;;;;49.78;24.70;;;14.00;82.50;;;;;;5108176;28;20038;-69
2022/04/14 01:40:13;;;;;;;113.53;26.88;;;13.90;82.70;;;;;;5108139;28;20556;-70
2022/04/14 01:42:38;;;;;;;55.72;24.20;;;13.90;82.90;;;;;;5083964;28;20554;-69
2022/04/14 01:45:09;;;;;;;30.88;20.45;;;13.90;83.20;;;;;;5105206;28;20031;-69
2022/04/14 01:47:45;;;;;;;35.95;17.00;;;13.80;83.10;;;;;;5099177;28;20441;-70
2022/04/14 01:50:13;;;;;;;49.78;17.20;;;13.90;83.00;;;;;;5101416;27;20056;-69
2022/04/14 01:52:40;;;;;;;33.97;19.15;;;13.90;82.70;;;;;;5119413;27;20028;-69
2022/04/14 01:55:07;;;;;;;32.72;18.35;;;14.00;82.70;;;;;;5117421;27;20028;-69
2022/04/14 01:57:32;;;;;;;61.97;21.15;;;14.00;82.60;;;;;;5117761;27;20107;-68
2022/04/14 01:59:59;;;;;;;30.75;18.83;;;14.00;82.60;;;;;;5108427;28;20090;-68
2022/04/14 02:02:25;;;;;;;54.80;18.73;;;14.00;82.70;;;;;;5085216;27;20034;-70
2022/04/14 02:04:51;;;;;;;56.28;18.92;;;14.00;82.50;;;;;;5111114;27;20024;-69
2022/04/14 02:07:17;;;;;;;54.85;17.65;;;14.00;82.50;;;;;;5111545;28;20077;-69
2022/04/14 02:09:43;;;;;;;69.82;19.92;;;14.00;82.40;;;;;;5106910;28;20023;-69
2022/04/14 02:12:11;;;;;;;65.28;23.20;;;14.00;82.50;;;;;;5093342;27;20041;-66
2022/04/14 02:14:37;;;;;;;63.75;22.92;;;13.90;82.60;;;;;;5108589;28;20030;-67
2022/04/14 02:17:03;;;;;;;49.67;20.92;;;13.90;82.80;;;;;;5112444;27;20059;-69
2022/04/14 02:19:28;;;;;;;42.58;18.73;;;13.90;83.00;;;;;;5112116;27;20058;-68
2022/04/14 02:21:54;;;;;;;74.13;20.63;;;13.90;83.10;;;;;;5122791;27;20100;-68
2022/04/14 02:24:20;;;;;;;46.85;19.52;;;13.90;83.10;;;;;;5116290;27;20015;-69
2022/04/14 02:26:45;;;;;;;33.00;18.98;;;13.80;83.20;;;;;;5104397;28;20023;-69
2022/04/14 02:29:11;;;;;;;41.50;19.83;;;13.80;83.10;;;;;;5110948;28;20037;-69
2022/04/14 02:31:36;;;;;;;44.83;18.63;;;13.80;83.20;;;;;;5111950;28;20023;-70
2022/04/14 02:34:02;;;;;;;27.83;19.67;;;13.80;83.20;;;;;;5109052;28;20052;-70
2022/04/14 02:36:27;;;;;;;32.92;18.35;;;13.80;83.20;;;;;;5109084;27;20090;-68
2022/04/14 02:38:53;;;;;;;24.02;17.15;;;13.80;83.10;;;;;;5090439;28;20051;-70
2022/04/14 02:41:18;;;;;;;23.35;14.43;;;13.80;83.10;;;;;;5120603;27;20036;-69
2022/04/14 02:43:44;;;;;;;40.15;19.80;;;13.90;83.10;;;;;;5103481;27;20054;-67
2022/04/14 02:46:10;;;;;;;23.02;14.63;;;13.90;83.00;;;;;;5109516;27;20027;-68
2022/04/14 02:48:36;;;;;;;33.85;15.90;;;13.90;83.00;;;;;;5100131;28;20023;-68
2022/04/14 02:51:01;;;;;;;20.17;14.75;;;13.90;83.00;;;;;;5120484;27;20038;-69
2022/04/14 02:53:27;;;;;;;15.27;12.43;;;13.90;83.00;;;;;;5104711;28;20427;-68
2022/04/14 02:55:52;;;;;;;23.48;15.85;;;13.90;82.90;;;;;;5090532;28;20023;-70
2022/04/14 02:58:19;;;;;;;20.08;16.30;;;13.90;82.80;;;;;;5105631;28;20026;-69
2022/04/14 03:00:44;;;;;;;19.70;15.88;;;13.90;82.70;;;;;;5086929;28;20057;-70
2022/04/14 03:03:10;;;;;;;20.25;15.27;;;13.90;82.70;;;;;;5111383;28;20043;-70
2022/04/14 03:05:35;;;;;;;23.67;18.17;;;13.80;82.70;;;;;;5100255;28;20031;-70
2022/04/14 03:08:01;;;;;;;20.63;16.42;;;13.80;82.70;;;;;;5106454;27;20023;-70
2022/04/14 03:10:26;;;;;;;21.70;16.42;;;13.80;82.70;;;;;;5087158;28;20026;-70
2022/04/14 03:12:52;;;;;;;21.05;16.45;;;13.90;82.70;;;;;;5110212;28;20532;-70
2022/04/14 03:15:17;;;;;;;21.73;17.40;;;13.80;82.60;;;;;;5108544;28;20554;-69
2022/04/14 03:17:43;;;;;;;20.75;16.33;;;13.80;82.60;;;;;;5086545;28;20409;-71
2022/04/14 03:20:10;;;;;;;21.88;17.42;;;13.80;82.60;;;;;;5108225;28;20035;-70
2022/04/14 03:22:36;;;;;;;22.90;17.55;;;13.70;82.60;;;;;;5113481;27;20028;-71
2022/04/14 03:25:04;;;;;;;20.92;16.95;;;13.70;82.60;;;;;;5101349;27;20079;-70
2022/04/14 03:27:30;;;;;;;22.30;17.25;;;13.70;82.60;;;;;;5116990;27;20027;-69
2022/04/14 03:29:56;;;;;;;23.02;16.77;;;13.70;82.60;;;;;;5110432;28;20028;-71
2022/04/14 03:32:25;;;;;;;22.35;17.75;;;13.70;82.50;;;;;;5103058;28;20025;-71
2022/04/14 03:34:54;;;;;;;21.98;17.67;;;13.70;82.60;;;;;;5099383;27;20042;-71
2022/04/14 03:37:20;;;;;;;23.98;18.48;;;13.60;82.50;;;;;;5106802;28;20444;-70
2022/04/14 03:39:46;;;;;;;22.33;16.55;;;13.60;82.60;;;;;;5103954;27;20532;-71
2022/04/14 03:42:12;;;;;;;23.02;18.17;;;13.60;82.60;;;;;;5110391;27;20036;-71
2022/04/14 03:44:37;;;;;;;22.80;17.63;;;13.50;82.50;;;;;;5087932;28;20028;-71
2022/04/14 03:47:03;;;;;;;23.65;17.55;;;13.50;82.50;;;;;;5103931;27;20027;-71
2022/04/14 03:49:28;;;;;;;21.17;15.65;;;13.50;82.50;;;;;;5103917;28;20073;-70
2022/04/14 03:51:55;;;;;;;18.58;13.82;;;13.50;82.40;;;;;;5107039;27;20053;-71
2022/04/14 03:54:21;;;;;;;21.00;16.13;;;13.50;82.50;;;;;;5109432;27;20027;-70
2022/04/14 03:56:48;;;;;;;20.05;15.82;;;13.40;82.50;;;;;;5109423;28;20032;-69
2022/04/14 03:59:14;;;;;;;23.75;17.55;;;13.40;82.50;;;;;;5108946;28;20015;-71
2022/04/14 04:01:40;;;;;;;21.08;16.55;;;13.40;82.60;;;;;;5111842;27;20097;-71
2022/04/14 04:04:06;;;;;;;19.50;15.27;;;13.30;82.60;;;;;;5084673;27;20482;-73
2022/04/14 04:06:31;;;;;;;20.83;15.35;;;13.30;82.50;;;;;;5111639;27;20077;-70
2022/04/14 04:08:57;;;;;;;19.95;15.80;;;13.30;82.50;;;;;;5115764;27;20016;-69
2022/04/14 04:11:22;;;;;;;20.08;14.32;;;13.30;82.40;;;;;;5104078;28;20021;-70
2022/04/14 04:13:48;;;;;;;19.27;14.55;;;13.30;82.50;;;;;;5097726;28;20030;-70
2022/04/14 04:16:14;;;;;;;19.27;14.25;;;13.20;82.50;;;;;;5101842;28;20075;-69
2022/04/14 04:18:40;;;;;;;20.10;14.55;;;13.10;82.50;;;;;;5086070;28;20036;-69
2022/04/14 04:21:06;;;;;;;16.55;13.20;;;13.10;82.60;;;;;;5101856;27;20038;-69
2022/04/14 04:23:31;;;;;;;20.73;14.60;;;13.10;82.60;;;;;;5103444;28;20028;-69
2022/04/14 04:25:57;;;;;;;25.10;16.00;;;13.00;82.60;;;;;;5087054;28;20050;-70
2022/04/14 04:28:22;;;;;;;20.95;15.88;;;13.00;82.70;;;;;;5104966;28;20501;-69
2022/04/14 04:30:48;;;;;;;19.98;14.65;;;12.90;82.70;;;;;;5109798;27;20507;-68
2022/04/14 04:33:13;;;;;;;18.58;13.32;;;12.90;82.70;;;;;;5113035;27;20015;-69
2022/04/14 04:35:39;;;;;;;22.30;13.35;;;12.90;82.70;;;;;;5106543;28;20060;-70
2022/04/14 04:38:05;;;;;;;19.83;13.65;;;12.90;82.50;;;;;;5109989;27;20024;-68
2022/04/14 04:40:31;;;;;;;20.30;12.55;;;12.90;82.50;;;;;;5110324;27;20438;-70
2022/04/14 04:42:56;;;;;;;18.10;12.52;;;12.90;82.50;;;;;;5102015;27;20126;-70
2022/04/14 04:45:22;;;;;;;19.52;13.15;;;12.80;82.40;;;;;;5107720;28;20035;-70
2022/04/14 04:47:47;;;;;;;20.65;12.70;;;12.80;82.40;;;;;;5114090;27;20043;-69
2022/04/14 04:50:13;;;;;;;27.55;14.10;;;12.90;82.30;;;;;;5094792;28;20030;-70
2022/04/14 04:52:38;;;;;;;20.70;12.57;;;12.90;82.00;;;;;;5107292;27;20024;-69
2022/04/14 04:55:04;;;;;;;25.95;11.57;;;12.80;81.90;;;;;;5117254;27;20051;-67
2022/04/14 04:57:30;;;;;;;28.05;12.68;;;12.80;81.90;;;;;;5115907;27;20030;-68
2022/04/14 04:59:55;;;;;;;67.35;13.20;;;12.80;81.90;;;;;;5118149;27;20055;-68
2022/04/14 05:02:21;;;;;;;24.92;11.57;;;12.80;81.90;;;;;;5104526;27;20016;-68
2022/04/14 05:04:46;;;;;;;49.30;12.55;;;12.70;81.90;;;;;;5107502;27;20370;-68
2022/04/14 05:07:12;;;;;;;50.28;13.32;;;12.70;81.90;;;;;;5103712;27;20059;-70
2022/04/14 05:09:38;;;;;;;28.10;11.80;;;12.70;81.80;;;;;;5107216;28;20107;-69
2022/04/14 05:12:04;;;;;;;35.72;10.85;;;12.60;81.90;;;;;;5097691;28;20077;-69
2022/04/14 05:14:30;;;;;;;20.23;10.57;;;12.60;81.90;;;;;;5101567;28;20486;-69
2022/04/14 05:16:55;;;;;;;22.63;12.07;;;12.60;81.90;;;;;;5115558;27;20110;-68
2022/04/14 05:19:21;;;;;;;33.92;13.82;;;12.60;82.00;;;;;;5104021;28;20026;-69
2022/04/14 05:21:48;;;;;;;23.55;11.90;;;12.60;82.00;;;;;;5107073;28;20027;-69
2022/04/14 05:24:14;;;;;;;18.10;10.70;;;12.50;82.10;;;;;;5104825;28;20022;-68
2022/04/14 05:26:40;;;;;;;38.15;11.07;;;12.50;82.10;;;;;;5097452;28;20517;-68
2022/04/14 05:29:06;;;;;;;27.67;10.63;;;12.60;82.10;;;;;;5106238;28;20031;-67
2022/04/14 05:31:31;;;;;;;21.48;9.60;;;12.50;82.10;;;;;;5101160;28;20117;-68
2022/04/14 05:33:57;;;;;;;43.75;12.60;;;12.60;82.10;;;;;;5104847;28;20032;-68
2022/04/14 05:36:22;;;;;;;21.05;11.20;;;12.60;82.10;;;;;;5100880;28;20029;-68
2022/04/14 05:38:48;;;;;;;38.08;11.00;;;12.50;82.10;;;;;;5107823;28;20049;-68
2022/04/14 05:41:13;;;;;;;20.13;10.30;;;12.50;82.20;;;;;;5084713;28;20393;-67
2022/04/14 05:43:39;;;;;;;29.55;9.80;;;12.50;82.30;;;;;;5109080;28;20032;-67
2022/04/14 05:46:04;;;;;;;28.83;9.40;;;12.50;82.30;;;;;;5106967;28;20020;-69
2022/04/14 05:48:30;;;;;;;60.90;10.98;;;12.50;82.40;;;;;;5106916;28;20031;-68
2022/04/14 05:50:55;;;;;;;51.30;10.20;;;12.50;82.40;;;;;;5097799;28;20023;-68
2022/04/14 05:53:25;;;;;;;23.48;9.40;;;12.50;82.50;;;;;;5104572;28;20015;-68
2022/04/14 05:55:51;;;;;;;25.90;9.70;;;12.50;82.50;;;;;;5108945;28;20156;-68
2022/04/14 05:58:17;;;;;;;23.48;9.30;;;12.60;82.40;;;;;;5104298;28;20106;-67
2022/04/14 06:00:42;;;;;;;29.40;8.80;;;12.60;82.30;;;;;;5103281;28;20115;-68
2022/04/14 06:03:08;;;;;;;26.17;8.90;;;12.60;82.20;;;;;;5104321;28;20485;-68
2022/04/14 06:05:34;;;;;;;23.73;10.13;;;12.70;82.20;;;;;;5108100;28;20099;-67
2022/04/14 06:08:00;;;;;;;16.73;9.23;;;12.90;82.10;;;;;;5099664;28;20039;-67
2022/04/14 06:10:27;;;;;;;20.27;10.15;;;13.00;81.80;;;;;;5106320;28;20382;-69
2022/04/14 06:12:56;;;;;;;17.02;9.40;;;13.30;81.40;;;;;;5095484;28;20032;-67
2022/04/14 06:15:22;;;;;;;13.43;10.45;;;13.50;80.70;;;;;;5101070;28;20043;-70
2022/04/14 06:17:49;;;;;;;14.20;10.73;;;14.20;79.80;;;;;;5100755;28;20110;-68
2022/04/14 06:20:14;;;;;;;14.90;11.38;;;14.80;78.20;;;;;;5104687;28;20023;-68
2022/04/14 06:22:41;;;;;;;16.27;13.85;;;16.00;76.00;;;;;;5108107;28;20096;-69
2022/04/14 06:25:13;;;;;;;15.10;11.82;;;16.70;72.60;;;;;;5104085;28;20390;-68
2022/04/14 06:27:47;;;;;;;17.20;15.33;;;17.00;71.60;;;;;;5091237;28;20047;-68
2022/04/14 06:30:15;;;;;;;17.02;14.23;;;17.50;69.10;;;;;;5075811;28;20031;-68
2022/04/14 06:32:41;;;;;;;14.95;12.05;;;17.30;68.30;;;;;;5100217;28;20074;-70
2022/04/14 06:35:12;;;;;;;13.18;11.15;;;17.10;69.10;;;;;;5112819;27;20027;-72
2022/04/14 06:37:37;;;;;;;11.07;9.70;;;16.80;69.00;;;;;;5097950;28;20493;-70
2022/04/14 06:40:04;;;;;;;11.75;9.50;;;17.30;69.70;;;;;;5107212;27;20073;-71
2022/04/14 06:42:29;;;;;;;11.38;9.80;;;18.10;68.30;;;;;;5093640;27;20280;-70
2022/04/14 06:45:01;;;;;;;14.40;10.55;;;19.10;66.20;;;;;;5095912;28;20035;-71
2022/04/14 06:47:27;;;;;;;11.00;9.30;;;20.20;63.50;;;;;;5101199;28;20023;-70
2022/04/14 06:49:53;;;;;;;10.52;8.68;;;21.10;61.30;;;;;;5104761;27;20301;-71
2022/04/14 06:52:20;;;;;;;11.30;9.57;;;22.20;59.20;;;;;;5109300;27;20030;-73
2022/04/14 06:54:46;;;;;;;9.65;8.38;;;23.00;57.30;;;;;;5098442;27;20048;-72
2022/04/14 06:57:11;;;;;;;10.32;9.23;;;23.70;56.00;;;;;;5108412;27;20028;-73
2022/04/14 06:59:37;;;;;;;9.10;7.43;;;24.10;54.10;;;;;;5085719;27;20096;-73
2022/04/14 07:02:02;;;;;;;10.98;8.68;;;24.50;53.30;;;;;;5085454;28;20032;-74
2022/04/14 07:04:28;;;;;;;11.23;8.43;;;24.90;52.80;;;;;;5108936;27;20028;-73
2022/04/14 07:06:54;;;;;;;10.65;8.25;;;25.40;51.90;;;;;;5088829;28;20442;-72
2022/04/14 07:09:20;;;;;;;9.90;8.52;;;25.90;51.10;;;;;;5105343;28;20034;-72
2022/04/14 07:11:46;;;;;;;9.43;7.65;;;26.10;50.00;;;;;;5104110;28;20020;-72
2022/04/14 07:14:14;;;;;;;9.35;7.35;;;26.40;49.30;;;;;;5098991;28;20062;-72
2022/04/14 07:16:40;;;;;;;9.05;7.43;;;26.70;49.20;;;;;;5089830;28;20466;-71
2022/04/14 07:19:06;;;;;;;9.45;7.97;;;27.00;48.60;;;;;;5105542;28;20110;-72
2022/04/14 07:21:31;;;;;;;8.30;6.60;;;27.40;47.80;;;;;;5108372;28;20096;-72
2022/04/14 07:23:57;;;;;;;9.95;7.72;;;27.60;47.30;;;;;;5102642;28;20024;-73
2022/04/14 07:26:22;;;;;;;9.35;7.90;;;28.00;46.30;;;;;;5086243;28;20023;-72
2022/04/14 07:28:48;;;;;;;8.80;7.63;;;28.20;45.50;;;;;;5101985;28;20492;-72
2022/04/14 07:31:13;;;;;;;9.35;7.60;;;28.10;45.00;;;;;;5109268;28;20019;-72
2022/04/14 07:33:40;;;;;;;7.50;6.70;;;27.90;44.80;;;;;;5098396;28;20181;-72
2022/04/14 07:36:05;;;;;;;8.57;6.63;;;28.00;45.00;;;;;;5088950;28;20028;-72
2022/04/14 07:38:31;;;;;;;7.68;6.53;;;28.00;44.70;;;;;;5096937;28;20027;-73
2022/04/14 07:40:56;;;;;;;8.00;6.65;;;28.20;44.60;;;;;;5099418;28;20027;-72
2022/04/14 07:43:23;;;;;;;8.38;6.70;;;28.20;44.20;;;;;;5097057;28;20044;-72
2022/04/14 07:45:49;;;;;;;7.50;6.68;;;28.40;44.00;;;;;;5090895;28;20082;-72
2022/04/14 07:48:16;;;;;;;7.70;6.15;;;28.40;43.80;;;;;;5100331;28;20031;-72
2022/04/14 07:50:42;;;;;;;8.05;6.72;;;28.50;43.80;;;;;;5100822;28;20153;-72
2022/04/14 07:53:08;;;;;;;8.88;7.20;;;28.30;43.10;;;;;;5104162;28;20109;-72
2022/04/14 07:55:35;;;;;;;10.88;9.43;;;28.20;43.10;;;;;;5084471;28;20059;-72
2022/04/14 07:58:07;;;;;;;9.98;8.75;;;27.80;42.60;;;;;;5087371;28;20054;-71
2022/04/14 08:00:34;;;;;;;11.48;9.98;;;27.30;43.00;;;;;;5101205;28;20392;-72
2022/04/14 08:03:01;;;;;;;9.88;8.15;;;26.80;43.00;;;;;;5097454;28;20024;-73
2022/04/14 08:05:33;;;;;;;10.90;9.80;;;26.70;43.70;;;;;;5096112;27;20028;-71
2022/04/14 08:08:03;;;;;;;8.98;7.93;;;26.20;43.60;;;;;;5092423;28;20019;-72
2022/04/14 08:10:28;;;;;;;11.82;10.57;;;26.30;44.10;;;;;;5106492;27;20027;-72
2022/04/14 08:12:54;;;;;;;12.95;11.60;;;26.50;43.50;;;;;;5109277;27;20360;-72
2022/04/14 08:15:20;;;;;;;14.02;11.40;;;26.00;43.60;;;;;;5097464;27;20504;-72
2022/04/14 08:17:46;;;;;;;13.05;10.50;;;25.60;44.10;;;;;;5082996;28;20028;-72
2022/04/14 08:20:13;;;;;;;9.27;7.70;;;25.40;45.00;;;;;;5098998;27;20032;-72
2022/04/14 08:22:49;;;;;;;8.93;8.02;;;24.90;45.80;;;;;;5099569;28;20039;-72
2022/04/14 08:25:17;;;;;;;9.27;8.15;;;23.60;48.20;;;;;;5104920;27;20032;-72
2022/04/14 08:27:43;;;;;;;10.73;8.20;;;22.50;50.80;;;;;;5078445;28;20012;-72
2022/04/14 08:30:09;;;;;;;10.45;7.97;;;21.70;53.00;;;;;;5102302;28;20610;-72
2022/04/14 08:32:35;;;;;;;9.40;7.63;;;21.30;54.40;;;;;;5108620;28;20428;-72
2022/04/14 08:35:04;;;;;;;11.48;8.70;;;20.90;55.40;;;;;;5107229;27;20031;-72
2022/04/14 08:37:30;;;;;;;8.88;7.93;;;20.30;56.60;;;;;;5105163;28;20046;-71
2022/04/14 08:39:57;;;;;;;11.50;9.00;;;19.90;58.00;;;;;;5109282;27;20066;-72
2022/04/14 08:42:26;;;;;;;9.48;8.05;;;19.60;58.80;;;;;;5108306;27;20073;-72
2022/04/14 08:45:03;;;;;;;12.07;9.77;;;19.20;59.60;;;;;;5109669;28;20382;-71
2022/04/14 08:47:29;;;;;;;9.50;7.60;;;18.80;60.30;;;;;;5103319;27;20117;-72
2022/04/14 08:49:57;;;;;;;9.15;7.57;;;18.60;61.00;;;;;;5094473;28;20068;-72
2022/04/14 08:52:24;;;;;;;10.55;7.32;;;19.30;60.80;;;;;;5103486;28;20035;-72
2022/04/14 08:54:49;;;;;;;10.70;7.13;;;19.30;60.10;;;;;;5099921;28;20036;-72
2022/04/14 08:57:16;;;;;;;9.73;7.60;;;19.30;60.30;;;;;;5102675;28;20115;-73
2022/04/14 08:59:43;;;;;;;11.05;8.40;;;19.70;60.10;;;;;;5086782;28;20024;-71
2022/04/14 09:02:16;;;;;;;9.95;8.32;;;19.20;59.90;;;;;;5099624;28;20481;-72
2022/04/14 09:04:43;;;;;;;10.25;8.23;;;19.30;60.50;;;;;;5105797;28;20386;-72
2022/04/14 09:07:10;;;;;;;10.63;7.38;;;19.20;60.50;;;;;;5105014;28;20461;-72
2022/04/14 09:09:36;;;;;;;8.13;6.15;;;19.20;60.90;;;;;;5106148;28;20070;-72
2022/04/14 09:12:02;;;;;;;8.10;6.85;;;19.20;61.00;;;;;;5105318;28;20023;-71
2022/04/14 09:14:29;;;;;;;8.02;5.57;;;19.10;61.20;;;;;;5104749;28;20498;-72
2022/04/14 09:16:55;;;;;;;10.73;9.23;;;19.00;61.50;;;;;;5075553;28;20444;-72
2022/04/14 09:19:20;;;;;;;9.77;7.50;;;19.00;61.20;;;;;;5095094;28;20023;-71
2022/04/14 09:22:00;;;;;;;9.63;7.82;;;18.70;62.30;;;;;;5102141;28;20448;-71
2022/04/14 09:24:42;;;;;;;9.30;7.05;;;18.70;62.20;;;;;;5102179;28;20085;-72
2022/04/14 09:27:09;;;;;;;8.57;7.18;;;18.80;62.30;;;;;;5100280;28;20091;-71
2022/04/14 09:29:35;;;;;;;7.72;5.95;;;18.80;62.20;;;;;;5097797;28;20036;-71
2022/04/14 09:32:01;;;;;;;7.20;5.15;;;18.90;62.20;;;;;;5091277;28;20146;-71
2022/04/14 09:34:51;;;;;;;5.90;4.75;;;19.00;62.00;;;;;;5095657;28;20026;-71
2022/04/14 09:37:17;;;;;;;7.88;5.38;;;19.20;61.90;;;;;;5101097;28;20035;-73
2022/04/14 09:40:02;;;;;;;7.72;5.60;;;19.20;61.50;;;;;;5090230;28;20015;-72
2022/04/14 09:42:30;;;;;;;7.43;5.20;;;19.30;61.30;;;;;;5095088;28;20506;-72
2022/04/14 09:45:19;;;;;;;7.53;4.90;;;19.40;61.20;;;;;;5099450;28;20023;-72
2022/04/14 09:47:45;;;;;;;8.82;5.93;;;19.50;61.10;;;;;;5100998;28;20024;-71
2022/04/14 09:50:29;;;;;;;7.50;5.72;;;19.50;60.40;;;;;;5115623;28;20103;-71
2022/04/14 09:53:05;;;;;;;7.25;4.97;;;19.40;60.50;;;;;;5107182;28;20046;-71
2022/04/14 09:55:32;;;;;;;6.60;4.47;;;19.40;60.60;;;;;;5104741;28;20411;-71
2022/04/14 09:58:15;;;;;;;9.80;6.18;;;19.50;60.50;;;;;;5119910;28;20020;-72
2022/04/14 10:00:57;;;;;;;6.50;4.68;;;19.60;60.20;;;;;;5102066;28;20115;-71
2022/04/14 10:03:26;;;;;;;6.05;4.68;;;19.60;60.40;;;;;;5089354;28;20111;-71
2022/04/14 10:05:54;;;;;;;6.63;4.65;;;19.60;60.30;;;;;;5101439;28;20470;-72
2022/04/14 10:08:22;;;;;;;6.60;4.05;;;19.70;60.20;;;;;;5083380;28;20036;-72
2022/04/14 10:10:49;;;;;;;6.65;4.57;;;19.80;60.10;;;;;;5103340;27;20024;-71
2022/04/14 10:13:16;;;;;;;7.43;4.90;;;19.90;59.80;;;;;;5108719;27;20402;-71
2022/04/14 10:15:45;;;;;;;8.02;6.20;;;19.90;59.50;;;;;;5111063;27;20074;-72
2022/04/14 10:18:13;;;;;;;7.05;4.78;;;19.90;59.10;;;;;;5108350;27;20027;-71
2022/04/14 10:20:41;;;;;;;8.15;4.53;;;20.00;59.20;;;;;;5095812;28;20497;-72
2022/04/14 10:23:11;;;;;;;6.65;4.68;;;20.10;59.30;;;;;;5108600;27;20110;-71
2022/04/14 10:25:38;;;;;;;6.38;3.80;;;20.30;58.90;;;;;;5095489;28;20389;-72
2022/04/14 10:28:06;;;;;;;6.97;4.03;;;20.40;58.30;;;;;;5109078;28;20031;-71
2022/04/14 10:30:32;;;;;;;4.60;3.40;;;20.40;57.70;;;;;;5101363;28;20031;-71
2022/04/14 10:32:58;;;;;;;6.28;3.78;;;20.40;57.30;;;;;;5108415;28;20019;-71
2022/04/14 10:35:29;;;;;;;5.50;3.80;;;20.40;57.20;;;;;;5110360;28;20019;-72
2022/04/14 10:38:05;;;;;;;6.35;3.33;;;20.50;57.10;;;;;;5109039;28;20048;-71
2022/04/14 10:40:33;;;;;;;6.35;3.00;;;20.50;56.30;;;;;;5110158;28;20031;-71
2022/04/14 10:42:59;;;;;;;4.32;2.97;;;20.60;56.50;;;;;;5105444;28;20110;-71
2022/04/14 10:45:25;;;;;;;7.07;4.45;;;20.80;56.20;;;;;;5109485;28;20062;-72
2022/04/14 10:47:50;;;;;;;5.35;3.70;;;20.80;55.70;;;;;;5102300;27;20055;-71
2022/04/14 10:50:27;;;;;;;5.18;3.50;;;20.80;55.20;;;;;;5100079;28;20024;-71
2022/04/14 10:53:04;;;;;;;5.13;3.45;;;20.90;55.00;;;;;;5081553;28;20342;-70
2022/04/14 10:55:36;;;;;;;5.03;3.20;;;20.80;55.00;;;;;;5107150;28;20028;-69
2022/04/14 10:58:02;;;;;;;6.05;3.22;;;20.80;55.20;;;;;;5112980;27;20024;-71
2022/04/14 11:00:37;;;;;;;7.47;4.13;;;20.90;55.00;;;;;;5109131;27;20081;-70
2022/04/14 11:03:09;;;;;;;5.97;3.65;;;20.80;54.80;;;;;;5100531;28;20055;-69
2022/04/14 11:05:39;;;;;;;4.93;3.22;;;20.80;54.80;;;;;;5106296;28;20166;-70
2022/04/14 11:08:27;;;;;;;5.28;3.45;;;21.00;55.00;;;;;;5101069;28;20108;-71
2022/04/14 11:11:05;;;;;;;5.75;2.90;;;21.20;54.30;;;;;;5098960;28;20020;-70
2022/04/14 11:13:52;;;;;;;4.72;2.40;;;21.30;54.30;;;;;;5094700;28;20028;-70
2022/04/14 11:16:50;;;;;;;4.82;3.13;;;21.50;53.80;;;;;;5102573;28;20043;-71
2022/04/14 11:19:19;;;;;;;4.72;3.13;;;21.50;53.00;;;;;;5027740;28;20028;-71
2022/04/14 11:24:40;;;;;;;5.50;3.35;;;21.50;53.40;;;;;;5098124;28;20058;-71
2022/04/14 11:27:12;;;;;;;6.05;3.33;;;21.50;53.40;;;;;;5108599;27;20016;-71
2022/04/14 11:29:39;;;;;;;5.68;3.30;;;21.50;53.40;;;;;;5086254;28;20038;-70
2022/04/14 11:32:05;;;;;;;4.38;2.22;;;21.30;52.70;;;;;;5110120;28;20016;-71
2022/04/14 11:34:35;;;;;;;3.58;2.40;;;21.10;52.80;;;;;;5111037;28;20426;-71
2022/04/14 11:37:03;;;;;;;4.20;2.78;;;21.00;52.90;;;;;;5111721;28;20035;-70
2022/04/14 11:39:30;;;;;;;4.63;2.45;;;20.90;52.90;;;;;;5082365;28;20028;-70
2022/04/14 11:42:06;;;;;;;3.30;2.28;;;20.80;53.00;;;;;;5100510;28;20046;-69
2022/04/14 11:44:32;;;;;;;3.85;2.90;;;20.80;53.30;;;;;;5100579;27;20047;-70
2022/04/14 11:46:59;;;;;;;4.35;2.65;;;20.70;52.90;;;;;;5106846;27;20043;-71
2022/04/14 11:49:27;;;;;;;3.50;2.58;;;20.70;53.10;;;;;;5103946;27;20050;-70
2022/04/14 11:51:54;;;;;;;5.88;3.15;;;20.80;53.00;;;;;;5110994;27;20043;-71
2022/04/14 11:54:22;;;;;;;4.78;2.80;;;20.80;52.60;;;;;;5102440;28;20382;-71
2022/04/14 11:56:53;;;;;;;4.40;2.92;;;20.80;52.70;;;;;;5104196;28;20027;-71
2022/04/14 11:59:32;;;;;;;4.68;3.20;;;20.90;53.00;;;;;;5100257;28;20517;-72
2022/04/14 12:02:06;;;;;;;3.50;3.00;;;20.90;53.00;;;;;;5107176;27;20084;-71
2022/04/14 12:04:39;;;;;;;5.85;3.97;;;21.00;54.10;;;;;;5107789;27;20063;-71
2022/04/14 12:07:05;;;;;;;4.75;2.90;;;21.20;53.00;;;;;;5113317;27;20054;-72
2022/04/14 12:09:31;;;;;;;6.00;3.55;;;21.40;52.80;;;;;;5108287;27;20070;-71
2022/04/14 12:12:07;;;;;;;6.20;3.92;;;21.60;51.70;;;;;;5112305;27;20020;-71
2022/04/14 12:14:32;;;;;;;7.03;3.70;;;21.50;51.60;;;;;;5094348;28;20023;-71
2022/04/14 12:16:57;;;;;;;6.03;3.80;;;21.30;51.90;;;;;;5106640;28;20023;-71
2022/04/14 12:19:41;;;;;;;4.78;3.25;;;21.10;52.10;;;;;;5104655;27;20163;-71
2022/04/14 12:22:06;;;;;;;5.35;3.05;;;20.90;52.50;;;;;;5100262;28;20028;-72
2022/04/14 12:24:32;;;;;;;6.03;3.40;;;20.80;52.80;;;;;;5103670;28;20521;-70
2022/04/14 12:26:58;;;;;;;5.15;3.30;;;20.70;53.10;;;;;;5104471;28;20043;-70
2022/04/14 12:29:24;;;;;;;5.40;3.50;;;20.70;53.20;;;;;;5104851;27;20016;-71
2022/04/14 12:32:10;;;;;;;4.55;3.17;;;20.50;53.30;;;;;;5105068;28;20669;-71
2022/04/14 12:34:41;;;;;;;4.60;3.30;;;20.40;53.60;;;;;;5079031;28;20110;-71
2022/04/14 12:37:08;;;;;;;5.07;3.22;;;20.40;53.70;;;;;;5100006;28;20031;-70
2022/04/14 12:39:34;;;;;;;6.60;3.30;;;20.40;53.90;;;;;;5097658;28;20022;-69
2022/04/14 12:42:00;;;;;;;3.58;2.60;;;20.30;53.80;;;;;;5100093;28;20028;-71